Time;durP1;ratioP1;P1;durP2;ratioP2;P2;SDS_P1;SDS_P2;PMS_P1;PMS_P2;Temp;Humidity;BMP_temperature;BMP_pressure;BME280_temperature;BME280_humidity;BME280_pressure;Samples;Min_cycle;Max_cycle;Signal;HPM_P1;HPM_P2
2021/10/26 00:02:12;;;;;;;12.85;9.95;;;13.60;85.00;;;;;;5088457;28;20017;-79
2021/10/26 00:04:38;;;;;;;12.95;10.13;;;13.60;85.00;;;;;;5088469;28;20074;-79
2021/10/26 00:07:05;;;;;;;16.30;11.38;;;13.60;85.00;;;;;;5072684;28;20499;-79
2021/10/26 00:09:30;;;;;;;15.10;11.15;;;13.60;85.00;;;;;;5072726;28;20033;-80
2021/10/26 00:11:56;;;;;;;13.65;10.73;;;13.50;85.00;;;;;;5088287;28;20016;-79
2021/10/26 00:14:21;;;;;;;13.02;10.20;;;13.60;85.10;;;;;;5088183;28;20064;-80
2021/10/26 00:16:47;;;;;;;14.95;10.95;;;13.60;85.00;;;;;;5088049;28;20020;-79
2021/10/26 00:19:13;;;;;;;12.10;9.85;;;13.60;85.10;;;;;;5088175;28;20017;-80
2021/10/26 00:21:39;;;;;;;12.50;10.32;;;13.60;85.00;;;;;;5072661;28;20032;-80
2021/10/26 00:24:05;;;;;;;12.25;10.20;;;13.60;85.00;;;;;;5088242;28;20507;-80
2021/10/26 00:26:31;;;;;;;16.17;10.80;;;13.60;85.00;;;;;;5072560;28;20025;-79
2021/10/26 00:28:57;;;;;;;13.73;10.38;;;13.60;85.00;;;;;;5088115;28;20029;-79
2021/10/26 00:31:24;;;;;;;15.27;10.50;;;13.60;85.00;;;;;;5088154;28;20138;-79
2021/10/26 00:33:51;;;;;;;14.15;10.82;;;13.60;85.00;;;;;;5072584;28;20465;-79
2021/10/26 00:36:16;;;;;;;12.90;11.07;;;13.60;85.10;;;;;;5088019;28;20090;-79
2021/10/26 00:38:42;;;;;;;16.08;10.15;;;13.60;85.10;;;;;;5087960;28;20024;-79
2021/10/26 00:41:07;;;;;;;14.45;11.20;;;13.60;85.10;;;;;;5088016;28;20021;-81
2021/10/26 00:43:34;;;;;;;14.05;10.25;;;13.60;85.10;;;;;;5087810;28;20155;-79
2021/10/26 00:46:00;;;;;;;13.98;10.65;;;13.60;85.10;;;;;;5087992;28;20115;-79
2021/10/26 00:48:25;;;;;;;12.15;10.02;;;13.60;85.10;;;;;;5087957;28;20064;-78
2021/10/26 00:50:52;;;;;;;13.88;10.30;;;13.60;85.20;;;;;;5088211;28;20043;-80
2021/10/26 00:53:19;;;;;;;13.57;9.75;;;13.60;85.20;;;;;;5072583;28;20032;-78
2021/10/26 00:55:46;;;;;;;15.27;11.25;;;13.60;85.20;;;;;;5087890;28;20059;-78
2021/10/26 00:58:12;;;;;;;15.13;11.15;;;13.60;85.10;;;;;;5087935;28;20043;-79
2021/10/26 01:00:38;;;;;;;12.10;10.52;;;13.60;85.20;;;;;;5072134;28;20052;-79
2021/10/26 01:03:04;;;;;;;14.43;10.48;;;13.60;85.20;;;;;;5070975;28;20484;-78
2021/10/26 01:05:29;;;;;;;13.88;10.95;;;13.60;85.10;;;;;;5087836;28;20069;-80
2021/10/26 01:07:55;;;;;;;15.82;11.18;;;13.60;85.20;;;;;;5088696;28;20594;-80
2021/10/26 01:10:21;;;;;;;13.40;10.68;;;13.60;85.80;;;;;;5091494;28;20025;-80
2021/10/26 01:12:47;;;;;;;15.27;12.50;;;13.60;85.20;;;;;;5091527;28;20017;-80
2021/10/26 01:15:13;;;;;;;14.73;10.57;;;13.60;85.20;;;;;;5091352;28;20388;-80
2021/10/26 01:17:39;;;;;;;18.83;12.20;;;13.60;85.30;;;;;;5091380;28;20029;-80
2021/10/26 01:20:07;;;;;;;16.13;11.75;;;13.50;85.20;;;;;;5075842;28;20385;-80
2021/10/26 01:22:39;;;;;;;16.17;11.73;;;13.50;85.30;;;;;;5091175;28;20586;-79
2021/10/26 01:25:07;;;;;;;18.20;11.35;;;13.50;85.30;;;;;;5091173;28;20032;-79
2021/10/26 01:27:32;;;;;;;15.15;11.07;;;13.50;85.30;;;;;;5091269;28;20507;-80
2021/10/26 01:29:58;;;;;;;15.10;11.63;;;13.60;85.40;;;;;;5091146;28;20016;-79
2021/10/26 01:32:27;;;;;;;18.83;12.30;;;13.60;85.40;;;;;;5091085;28;20112;-80
2021/10/26 01:34:52;;;;;;;16.23;12.32;;;13.60;85.40;;;;;;5090954;28;20020;-77
2021/10/26 01:37:18;;;;;;;16.67;12.30;;;13.60;85.40;;;;;;5090801;28;20030;-77
2021/10/26 01:39:45;;;;;;;17.30;12.90;;;13.60;85.50;;;;;;5090866;28;20107;-77
2021/10/26 01:42:10;;;;;;;17.20;12.82;;;13.60;85.40;;;;;;5075278;28;20052;-77
2021/10/26 01:44:36;;;;;;;17.85;13.35;;;13.50;85.40;;;;;;5090640;28;20093;-77
2021/10/26 01:47:03;;;;;;;22.65;14.23;;;13.50;85.50;;;;;;5075385;28;20411;-78
2021/10/26 01:49:29;;;;;;;19.30;13.13;;;13.40;85.60;;;;;;5090804;28;20032;-79
2021/10/26 01:51:54;;;;;;;18.75;13.23;;;13.50;85.70;;;;;;5090577;28;20028;-79
2021/10/26 01:54:21;;;;;;;18.00;12.95;;;13.50;85.70;;;;;;5090483;28;20067;-79
2021/10/26 01:56:47;;;;;;;19.42;13.27;;;13.50;85.70;;;;;;5074986;28;20024;-78
2021/10/26 01:59:13;;;;;;;19.42;14.77;;;13.50;85.70;;;;;;5090588;28;20021;-79
2021/10/26 02:01:39;;;;;;;20.45;13.48;;;13.50;85.80;;;;;;5075044;28;20055;-79
2021/10/26 02:04:04;;;;;;;20.40;14.05;;;13.40;85.80;;;;;;5090454;28;20052;-79
2021/10/26 02:06:30;;;;;;;19.30;13.50;;;13.50;85.90;;;;;;5090377;28;20036;-79
2021/10/26 02:08:56;;;;;;;16.10;12.68;;;13.50;85.90;;;;;;5090269;28;20048;-78
2021/10/26 02:11:22;;;;;;;22.83;16.73;;;13.50;85.90;;;;;;5090212;28;20063;-79
2021/10/26 02:13:47;;;;;;;19.95;14.57;;;13.50;85.90;;;;;;5074588;28;20436;-79
2021/10/26 02:16:13;;;;;;;19.00;14.93;;;13.40;86.00;;;;;;5090309;28;20081;-79
2021/10/26 02:18:39;;;;;;;22.60;14.70;;;13.40;86.10;;;;;;5089876;28;20025;-79
2021/10/26 02:21:05;;;;;;;22.10;14.75;;;13.40;86.10;;;;;;5089265;28;20021;-79
2021/10/26 02:23:31;;;;;;;18.08;14.07;;;13.40;86.20;;;;;;5089939;28;20051;-79
2021/10/26 02:25:57;;;;;;;19.50;14.85;;;13.40;86.20;;;;;;5074717;28;20384;-79
2021/10/26 02:28:22;;;;;;;20.40;14.52;;;13.40;86.20;;;;;;5090006;28;20472;-79
2021/10/26 02:30:48;;;;;;;23.65;15.07;;;13.40;86.30;;;;;;5089907;28;20025;-79
2021/10/26 02:33:14;;;;;;;19.02;14.05;;;13.40;86.20;;;;;;5089771;28;20033;-79
2021/10/26 02:35:40;;;;;;;20.98;13.73;;;13.40;86.20;;;;;;5089890;28;20017;-79
2021/10/26 02:38:06;;;;;;;17.60;13.48;;;13.40;86.20;;;;;;5089839;28;20013;-79
2021/10/26 02:40:32;;;;;;;21.25;13.63;;;13.40;86.20;;;;;;5090082;28;20377;-79
2021/10/26 02:42:58;;;;;;;18.15;13.68;;;13.40;86.10;;;;;;5073981;28;20049;-79
2021/10/26 02:45:30;;;;;;;17.33;14.25;;;13.40;86.10;;;;;;5073830;28;20031;-79
2021/10/26 02:47:56;;;;;;;17.48;13.93;;;13.40;86.10;;;;;;5089680;28;20411;-79
2021/10/26 02:50:22;;;;;;;18.02;13.90;;;13.40;86.20;;;;;;5089525;28;20024;-79
2021/10/26 02:52:48;;;;;;;21.13;14.38;;;13.40;86.20;;;;;;5073792;28;20082;-78
2021/10/26 02:55:13;;;;;;;19.20;14.23;;;13.40;86.20;;;;;;5089376;28;20033;-79
2021/10/26 02:57:39;;;;;;;20.13;14.07;;;13.50;86.20;;;;;;5089367;28;20052;-79
2021/10/26 03:00:08;;;;;;;16.95;13.32;;;13.50;86.20;;;;;;5089350;28;20024;-78
2021/10/26 03:02:34;;;;;;;19.05;13.88;;;13.50;86.20;;;;;;5089354;28;20392;-80
2021/10/26 03:04:59;;;;;;;18.42;13.23;;;13.50;86.20;;;;;;5089290;28;20031;-79
2021/10/26 03:07:25;;;;;;;19.73;14.10;;;13.50;86.20;;;;;;5089220;28;20396;-79
2021/10/26 03:09:50;;;;;;;16.67;13.93;;;13.50;86.20;;;;;;5073450;28;20062;-78
2021/10/26 03:12:16;;;;;;;19.45;13.88;;;13.50;86.20;;;;;;5089148;28;20024;-79
2021/10/26 03:14:42;;;;;;;25.33;14.40;;;13.50;86.20;;;;;;5073390;28;20516;-78
2021/10/26 03:17:07;;;;;;;21.85;14.48;;;13.50;86.20;;;;;;5073430;28;20031;-79
2021/10/26 03:19:33;;;;;;;19.38;13.73;;;13.50;86.20;;;;;;5088915;28;20081;-78
2021/10/26 03:21:59;;;;;;;19.70;14.30;;;13.50;86.20;;;;;;5088942;28;20484;-79
2021/10/26 03:24:24;;;;;;;19.75;14.52;;;13.50;86.20;;;;;;5088895;28;20082;-78
2021/10/26 03:26:50;;;;;;;21.60;15.75;;;13.50;86.20;;;;;;5088888;28;20059;-78
2021/10/26 03:29:16;;;;;;;18.70;14.57;;;13.50;86.20;;;;;;5088762;28;20029;-78
2021/10/26 03:31:42;;;;;;;17.92;13.60;;;13.40;86.90;;;;;;5072897;28;20032;-79
2021/10/26 03:34:08;;;;;;;22.50;15.15;;;13.50;86.30;;;;;;5088720;28;20032;-79
2021/10/26 03:36:33;;;;;;;18.65;14.38;;;13.50;86.30;;;;;;5088701;28;20024;-79
2021/10/26 03:38:59;;;;;;;19.73;14.65;;;13.40;86.30;;;;;;5089038;28;20373;-79
2021/10/26 03:41:25;;;;;;;18.40;14.60;;;13.40;86.30;;;;;;5088491;28;20021;-79
2021/10/26 03:43:51;;;;;;;21.05;14.73;;;13.40;86.30;;;;;;5105597;28;20043;-78
2021/10/26 03:46:17;;;;;;;19.83;15.82;;;13.40;86.30;;;;;;5105475;28;20476;-78
2021/10/26 03:48:43;;;;;;;21.00;15.88;;;13.40;86.30;;;;;;5072959;28;20073;-78
2021/10/26 03:51:09;;;;;;;18.95;15.15;;;13.40;86.30;;;;;;5105522;28;20214;-77
2021/10/26 03:53:35;;;;;;;22.35;15.00;;;13.40;86.40;;;;;;5088342;28;20032;-78
2021/10/26 03:56:02;;;;;;;18.17;14.40;;;13.40;87.00;;;;;;5105343;28;20340;-78
2021/10/26 03:58:28;;;;;;;20.35;15.88;;;13.40;86.40;;;;;;5105301;28;20031;-78
2021/10/26 04:00:53;;;;;;;23.83;16.98;;;13.30;86.30;;;;;;5105331;28;20024;-78
2021/10/26 04:03:19;;;;;;;19.00;15.35;;;13.30;86.30;;;;;;5072720;28;20031;-78
2021/10/26 04:10:59;;;;;;;24.20;17.25;;;13.30;86.30;;;;;;5072760;28;20052;-77
2021/10/26 04:13:26;;;;;;;21.83;16.33;;;13.20;86.30;;;;;;5071327;28;20480;-78
2021/10/26 04:15:54;;;;;;;20.60;16.83;;;13.20;86.40;;;;;;5088347;28;20028;-78
2021/10/26 04:18:22;;;;;;;20.48;16.10;;;13.20;86.40;;;;;;5088241;28;20046;-77
2021/10/26 04:20:48;;;;;;;21.08;15.93;;;13.20;86.50;;;;;;5088074;28;20107;-77
2021/10/26 04:23:14;;;;;;;20.77;16.23;;;13.20;86.50;;;;;;5088257;28;20133;-78
2021/10/26 04:25:39;;;;;;;20.92;15.93;;;13.20;86.50;;;;;;5072593;28;20025;-78
2021/10/26 04:28:06;;;;;;;20.20;15.60;;;13.20;86.50;;;;;;5088120;28;20024;-78
2021/10/26 04:30:34;;;;;;;20.70;16.40;;;13.10;86.40;;;;;;5105028;28;20029;-78
2021/10/26 04:33:01;;;;;;;19.88;15.48;;;13.20;86.50;;;;;;5072507;28;20016;-78
2021/10/26 04:35:27;;;;;;;20.20;15.32;;;13.20;86.50;;;;;;5105025;28;20035;-78
2021/10/26 04:37:52;;;;;;;22.58;16.20;;;13.20;86.40;;;;;;5087928;28;20020;-78
2021/10/26 04:40:18;;;;;;;23.80;15.60;;;13.10;86.40;;;;;;5088024;28;20021;-77
2021/10/26 04:42:44;;;;;;;21.27;15.93;;;13.10;86.40;;;;;;5105399;28;20412;-77
2021/10/26 04:45:10;;;;;;;25.35;16.33;;;13.10;86.50;;;;;;5075027;28;20056;-78
2021/10/26 04:47:36;;;;;;;22.48;15.52;;;13.10;86.60;;;;;;5108939;28;20028;-79
2021/10/26 04:50:02;;;;;;;23.73;16.10;;;13.10;86.60;;;;;;5109010;28;20025;-80
2021/10/26 04:52:28;;;;;;;26.73;16.17;;;13.00;86.60;;;;;;5108855;28;20028;-78
2021/10/26 04:54:54;;;;;;;24.75;16.42;;;13.00;86.70;;;;;;5091497;28;20391;-79
2021/10/26 04:57:19;;;;;;;21.67;16.05;;;13.00;86.70;;;;;;5108579;28;20043;-78
2021/10/26 04:59:45;;;;;;;22.90;15.65;;;13.00;86.80;;;;;;5108706;28;20032;-79
2021/10/26 05:02:11;;;;;;;29.23;16.75;;;13.00;86.70;;;;;;5108734;28;20037;-80
2021/10/26 05:04:37;;;;;;;23.63;17.08;;;13.00;86.70;;;;;;5108539;28;20029;-78
2021/10/26 05:07:03;;;;;;;23.25;16.42;;;13.00;86.80;;;;;;5075965;28;20090;-78
2021/10/26 05:09:30;;;;;;;19.77;14.80;;;13.00;87.40;;;;;;5108546;28;20116;-79
2021/10/26 05:11:55;;;;;;;22.83;15.23;;;13.00;86.90;;;;;;5108494;28;20028;-78
2021/10/26 05:14:21;;;;;;;26.23;16.58;;;13.00;86.90;;;;;;5108392;28;20033;-78
2021/10/26 05:16:47;;;;;;;24.23;16.15;;;12.90;86.90;;;;;;5091320;28;20119;-78
2021/10/26 05:19:14;;;;;;;23.67;16.27;;;13.00;86.90;;;;;;5108431;28;20020;-78
2021/10/26 05:21:39;;;;;;;25.67;16.73;;;12.90;86.90;;;;;;5108407;28;20039;-78
2021/10/26 05:24:05;;;;;;;25.35;17.05;;;12.90;86.90;;;;;;5108265;28;20028;-77
2021/10/26 05:26:35;;;;;;;25.45;16.17;;;12.90;86.90;;;;;;5091087;28;20039;-78
2021/10/26 05:29:01;;;;;;;26.95;16.58;;;12.90;86.90;;;;;;5091171;28;20033;-78
2021/10/26 05:31:27;;;;;;;22.90;16.20;;;12.90;86.90;;;;;;5108057;28;20068;-78
2021/10/26 05:33:53;;;;;;;26.35;17.50;;;12.90;86.90;;;;;;5075493;28;20040;-78
2021/10/26 05:39:43;;;;;;;24.00;17.25;;;12.90;87.00;;;;;;5075557;28;20126;-78
2021/10/26 05:42:09;;;;;;;24.23;16.48;;;12.90;86.90;;;;;;5107644;28;20063;-79
2021/10/26 05:44:35;;;;;;;25.08;17.45;;;12.90;87.00;;;;;;5090882;28;20020;-78
2021/10/26 05:47:01;;;;;;;27.40;17.85;;;12.90;87.00;;;;;;5107757;28;20025;-78
2021/10/26 05:49:26;;;;;;;25.20;18.15;;;12.80;86.90;;;;;;5107730;28;20107;-77
2021/10/26 05:51:52;;;;;;;26.77;18.02;;;12.80;87.00;;;;;;5090471;28;20071;-77
2021/10/26 05:54:18;;;;;;;25.38;17.02;;;12.80;87.00;;;;;;5090383;28;20036;-77
2021/10/26 05:56:43;;;;;;;26.83;18.35;;;12.80;87.00;;;;;;5107467;28;20066;-77
2021/10/26 05:59:09;;;;;;;21.90;15.75;;;12.80;87.00;;;;;;5107430;28;20513;-78
2021/10/26 06:01:36;;;;;;;24.73;16.90;;;12.80;87.00;;;;;;5107333;28;20057;-78
2021/10/26 06:04:02;;;;;;;24.48;16.48;;;12.80;87.10;;;;;;5107418;28;20025;-77
2021/10/26 06:06:28;;;;;;;27.40;17.73;;;12.80;87.10;;;;;;5074825;28;20071;-77
2021/10/26 06:08:54;;;;;;;29.05;18.75;;;12.70;87.10;;;;;;5090311;28;20035;-77
2021/10/26 06:11:23;;;;;;;26.63;17.92;;;12.70;87.10;;;;;;5107488;28;20029;-77
2021/10/26 06:13:59;;;;;;;27.60;17.98;;;12.70;87.10;;;;;;5107127;28;20067;-77
2021/10/26 06:16:26;;;;;;;24.70;16.75;;;12.70;87.20;;;;;;5107293;28;20027;-78
2021/10/26 06:18:51;;;;;;;23.42;16.10;;;12.70;87.30;;;;;;5107089;28;20024;-77
2021/10/26 06:21:17;;;;;;;30.45;18.42;;;12.70;87.20;;;;;;5090109;28;20366;-77
2021/10/26 06:23:42;;;;;;;26.48;17.35;;;12.80;87.20;;;;;;5090084;28;20021;-78
2021/10/26 06:26:08;;;;;;;29.40;17.60;;;12.70;87.10;;;;;;5074531;28;20056;-77
2021/10/26 06:28:35;;;;;;;26.25;16.85;;;12.70;87.20;;;;;;5074821;28;20033;-77
2021/10/26 06:31:00;;;;;;;27.00;17.63;;;12.70;87.20;;;;;;5074824;28;20083;-77
2021/10/26 06:33:27;;;;;;;33.17;19.17;;;12.80;87.30;;;;;;5074515;28;20104;-77
2021/10/26 06:35:53;;;;;;;30.48;19.38;;;12.70;87.20;;;;;;5107200;28;20075;-78
2021/10/26 06:38:19;;;;;;;28.98;18.58;;;12.70;87.30;;;;;;5107096;28;20024;-78
2021/10/26 06:40:45;;;;;;;28.67;18.58;;;12.70;87.30;;;;;;5106904;28;20020;-78
2021/10/26 06:43:10;;;;;;;29.15;19.42;;;12.70;87.30;;;;;;5089701;28;20476;-77
2021/10/26 06:45:36;;;;;;;31.30;19.45;;;12.70;87.40;;;;;;5074660;28;20027;-79
2021/10/26 06:48:03;;;;;;;34.25;19.70;;;12.70;87.50;;;;;;5089918;28;20476;-78
2021/10/26 06:50:29;;;;;;;33.47;19.90;;;12.70;87.60;;;;;;5075612;28;20466;-78
2021/10/26 06:52:55;;;;;;;29.45;18.42;;;12.60;87.60;;;;;;5106566;28;20108;-77
2021/10/26 06:55:25;;;;;;;30.75;19.88;;;12.60;87.60;;;;;;5089973;28;20071;-78
2021/10/26 06:57:51;;;;;;;29.55;18.40;;;12.60;87.60;;;;;;5089600;28;20435;-77
2021/10/26 07:00:18;;;;;;;29.02;18.52;;;12.60;87.70;;;;;;5089439;28;20050;-77
2021/10/26 07:06:07;;;;;;;28.38;17.45;;;12.60;87.70;;;;;;5074499;28;20067;-81
2021/10/26 07:08:34;;;;;;;27.02;16.90;;;12.60;87.70;;;;;;5073228;28;20028;-82
2021/10/26 07:11:02;;;;;;;25.50;16.23;;;12.60;87.70;;;;;;5107053;28;20024;-80
2021/10/26 07:13:28;;;;;;;25.90;16.85;;;12.60;87.70;;;;;;5091520;28;20152;-80
2021/10/26 07:19:16;;;;;;;24.77;15.65;;;12.70;87.70;;;;;;5074126;28;20503;-80
2021/10/26 07:21:42;;;;;;;29.13;17.00;;;12.70;87.70;;;;;;5106045;28;20028;-81
2021/10/26 07:24:13;;;;;;;27.33;16.67;;;12.80;87.60;;;;;;5074046;28;20508;-81
2021/10/26 07:26:40;;;;;;;26.60;17.40;;;12.80;87.60;;;;;;5106039;28;20126;-80
2021/10/26 07:29:06;;;;;;;28.58;17.55;;;12.80;87.60;;;;;;5106407;28;20032;-79
2021/10/26 07:31:31;;;;;;;27.77;17.45;;;12.90;87.60;;;;;;5088921;28;20031;-79
2021/10/26 07:33:59;;;;;;;25.58;17.20;;;12.90;87.60;;;;;;5105878;28;20029;-80
2021/10/26 07:36:30;;;;;;;28.48;17.45;;;12.90;87.50;;;;;;5105634;28;20029;-80
2021/10/26 07:39:02;;;;;;;28.25;16.80;;;12.90;87.50;;;;;;5072003;28;20016;-80
2021/10/26 07:44:51;;;;;;;25.92;16.27;;;13.00;87.50;;;;;;5071262;28;20071;-81
2021/10/26 07:47:20;;;;;;;26.95;16.45;;;12.90;87.30;;;;;;5105826;28;20059;-80
2021/10/26 07:49:48;;;;;;;26.88;16.60;;;13.00;87.30;;;;;;5091206;28;20032;-80
2021/10/26 07:52:14;;;;;;;27.23;18.15;;;13.00;87.30;;;;;;5088620;28;20030;-80
2021/10/26 07:54:41;;;;;;;28.45;17.42;;;13.00;87.30;;;;;;5105524;28;20607;-80
2021/10/26 07:57:08;;;;;;;29.85;18.17;;;13.00;87.30;;;;;;5088827;28;20044;-80
2021/10/26 07:59:34;;;;;;;26.15;17.40;;;13.00;87.30;;;;;;5105443;28;20025;-79
2021/10/26 08:01:59;;;;;;;26.88;16.73;;;13.00;87.30;;;;;;5105574;28;20066;-80
2021/10/26 08:04:25;;;;;;;26.17;15.98;;;13.10;87.30;;;;;;5088830;28;20028;-80
2021/10/26 08:06:51;;;;;;;28.77;16.35;;;13.10;87.10;;;;;;5105371;28;20119;-79
2021/10/26 08:09:17;;;;;;;25.08;16.75;;;13.10;87.10;;;;;;5088483;28;20024;-79
2021/10/26 08:11:43;;;;;;;29.85;16.52;;;13.20;87.00;;;;;;5105320;28;20033;-80
2021/10/26 08:14:10;;;;;;;23.58;15.02;;;13.20;86.90;;;;;;5105470;28;20020;-80
2021/10/26 08:16:37;;;;;;;27.30;16.83;;;13.20;86.80;;;;;;5073142;28;20553;-80
2021/10/26 08:19:03;;;;;;;26.77;16.35;;;13.20;86.70;;;;;;5108325;28;20039;-80
2021/10/26 08:21:29;;;;;;;24.35;15.27;;;13.30;86.70;;;;;;5092676;28;20109;-80
2021/10/26 08:23:55;;;;;;;26.52;15.48;;;13.30;86.50;;;;;;5092758;28;20024;-80
2021/10/26 08:26:34;;;;;;;24.60;15.00;;;13.40;86.50;;;;;;5109560;28;20421;-80
2021/10/26 08:37:12;;;;;;;22.27;14.50;;;13.60;85.90;;;;;;5076651;28;20033;-80
2021/10/26 08:39:42;;;;;;;23.45;15.00;;;13.60;85.80;;;;;;5109473;28;20552;-80
2021/10/26 08:42:15;;;;;;;25.00;14.88;;;13.60;85.80;;;;;;5109154;28;20043;-80
2021/10/26 08:44:42;;;;;;;23.05;14.32;;;13.70;85.80;;;;;;5094240;28;20051;-80
2021/10/26 08:47:09;;;;;;;22.80;14.90;;;13.70;85.70;;;;;;5109150;28;20111;-80
2021/10/26 08:49:35;;;;;;;25.15;14.93;;;13.70;85.50;;;;;;5076513;28;20477;-80
2021/10/26 08:52:04;;;;;;;23.60;14.77;;;13.70;85.50;;;;;;5108932;28;20027;-80
2021/10/26 08:57:53;;;;;;;24.23;13.68;;;13.70;85.50;;;;;;5076930;28;20037;-80
2021/10/26 09:00:19;;;;;;;22.48;12.95;;;13.80;85.40;;;;;;5109311;28;20024;-80
2021/10/26 09:06:08;;;;;;;22.65;13.20;;;13.90;85.20;;;;;;5076478;28;20189;-79
2021/10/26 09:08:44;;;;;;;20.58;13.40;;;13.90;85.00;;;;;;5076068;28;20384;-80
2021/10/26 09:16:43;;;;;;;21.92;14.02;;;13.80;84.90;;;;;;5075900;28;20410;-80
2021/10/26 09:19:13;;;;;;;23.55;14.13;;;13.70;84.80;;;;;;5074456;28;20025;-82
2021/10/26 09:21:40;;;;;;;19.42;12.85;;;13.70;84.90;;;;;;5091531;28;20116;-81
2021/10/26 09:24:09;;;;;;;20.77;12.95;;;13.80;85.00;;;;;;5108341;28;20029;-80
2021/10/26 09:26:56;;;;;;;20.17;12.45;;;13.80;84.90;;;;;;5108818;28;20040;-80
2021/10/26 09:29:45;;;;;;;20.67;14.18;;;13.80;84.80;;;;;;5090699;28;20586;-81
2021/10/26 09:32:18;;;;;;;20.70;13.55;;;14.00;84.70;;;;;;5091024;28;20499;-81
2021/10/26 09:34:52;;;;;;;24.77;13.63;;;14.00;84.40;;;;;;5108195;28;20043;-82
2021/10/26 09:37:20;;;;;;;20.88;12.95;;;14.10;84.20;;;;;;5108045;28;20020;-80
2021/10/26 09:39:58;;;;;;;20.48;13.70;;;14.10;84.20;;;;;;5091050;28;20457;-80
2021/10/26 09:42:28;;;;;;;21.73;14.40;;;14.20;84.10;;;;;;5091124;28;20031;-80
2021/10/26 09:45:02;;;;;;;21.00;13.57;;;14.30;84.00;;;;;;5076435;28;20404;-80
2021/10/26 09:47:34;;;;;;;20.33;13.07;;;14.40;83.70;;;;;;5091057;28;20146;-81
2021/10/26 09:50:03;;;;;;;20.88;13.27;;;14.40;83.50;;;;;;5091007;28;20025;-81
2021/10/26 09:52:31;;;;;;;16.23;11.77;;;14.40;83.40;;;;;;5076403;28;20114;-81
2021/10/26 09:55:13;;;;;;;19.50;12.15;;;14.30;83.20;;;;;;5090725;28;20029;-80
2021/10/26 09:57:46;;;;;;;18.45;11.75;;;14.30;83.30;;;;;;5090902;28;20503;-81
2021/10/26 10:00:13;;;;;;;22.00;12.48;;;14.30;83.40;;;;;;5090694;28;20098;-81
2021/10/26 10:02:41;;;;;;;16.67;11.43;;;14.30;83.50;;;;;;5090849;28;20477;-81
2021/10/26 10:05:19;;;;;;;17.13;11.30;;;14.30;83.40;;;;;;5090739;28;20025;-81
2021/10/26 10:08:35;;;;;;;15.05;10.88;;;14.30;83.40;;;;;;5090678;28;20025;-80
2021/10/26 10:11:07;;;;;;;16.08;9.50;;;14.30;83.40;;;;;;5090480;28;20036;-79
2021/10/26 10:13:41;;;;;;;12.48;8.38;;;14.30;83.30;;;;;;5107521;28;20123;-81
2021/10/26 10:16:14;;;;;;;19.50;9.20;;;14.30;83.30;;;;;;5090370;28;20020;-80
2021/10/26 10:18:42;;;;;;;10.63;7.57;;;14.30;83.20;;;;;;5090192;28;20021;-80
2021/10/26 10:21:13;;;;;;;14.68;8.25;;;14.40;83.20;;;;;;5076096;28;20035;-80
2021/10/26 10:23:44;;;;;;;12.02;8.10;;;14.40;83.10;;;;;;5090387;28;20053;-80
2021/10/26 10:29:38;;;;;;;11.20;7.28;;;14.50;82.80;;;;;;5038058;28;20044;-79
2021/10/26 10:32:05;;;;;;;11.82;7.78;;;14.60;82.50;;;;;;5090010;28;20020;-79
2021/10/26 10:34:31;;;;;;;15.15;8.23;;;14.60;82.40;;;;;;5090246;28;20123;-79
2021/10/26 10:37:00;;;;;;;13.15;7.72;;;14.60;82.20;;;;;;5089854;28;20021;-79
2021/10/26 10:39:33;;;;;;;14.00;7.63;;;14.60;82.20;;;;;;5089727;28;20469;-79
2021/10/26 10:42:15;;;;;;;13.45;8.35;;;14.60;82.20;;;;;;5089249;28;20525;-79
2021/10/26 10:44:42;;;;;;;13.68;8.55;;;14.60;82.00;;;;;;5089341;28;20385;-79
2021/10/26 10:47:28;;;;;;;10.82;7.35;;;14.60;82.10;;;;;;5089659;28;20021;-79
2021/10/26 10:49:54;;;;;;;11.15;7.18;;;14.60;82.10;;;;;;5089486;28;20085;-80
2021/10/26 10:52:26;;;;;;;14.32;8.25;;;14.60;82.10;;;;;;5089665;28;20107;-80
2021/10/26 10:57:46;;;;;;;13.52;7.93;;;14.60;82.00;;;;;;5074442;28;20170;-80
2021/10/26 11:00:17;;;;;;;11.35;8.20;;;14.60;81.90;;;;;;5089633;28;20028;-79
2021/10/26 11:02:44;;;;;;;11.30;7.03;;;14.60;82.00;;;;;;5106471;28;20016;-79
2021/10/26 11:05:40;;;;;;;11.80;7.43;;;14.60;82.10;;;;;;5089502;28;20085;-80
2021/10/26 11:08:49;;;;;;;9.43;6.68;;;14.60;82.10;;;;;;5106244;28;20028;-80
2021/10/26 11:11:17;;;;;;;12.20;7.65;;;14.60;82.20;;;;;;5106027;28;20496;-79
2021/10/26 11:13:44;;;;;;;13.13;7.38;;;14.60;82.30;;;;;;5089315;28;20068;-80
2021/10/26 11:16:12;;;;;;;10.27;7.70;;;14.70;82.40;;;;;;5089305;28;20025;-79
2021/10/26 11:18:45;;;;;;;11.98;8.00;;;14.70;82.40;;;;;;5089159;28;20017;-79
2021/10/26 11:21:24;;;;;;;12.52;7.93;;;14.70;82.50;;;;;;5089212;28;20024;-79
2021/10/26 11:24:11;;;;;;;11.95;7.93;;;14.70;82.60;;;;;;5106237;28;20085;-78
2021/10/26 11:26:38;;;;;;;11.52;8.18;;;14.60;82.70;;;;;;5071537;28;20032;-78
2021/10/26 11:29:09;;;;;;;13.00;8.63;;;14.50;82.80;;;;;;5088868;28;20032;-79
2021/10/26 11:31:43;;;;;;;12.75;8.40;;;14.50;83.00;;;;;;5073305;28;20067;-79
2021/10/26 11:34:16;;;;;;;12.40;8.57;;;14.40;83.10;;;;;;5105724;28;20060;-79
2021/10/26 11:36:42;;;;;;;14.07;8.48;;;14.40;83.30;;;;;;5088829;28;20472;-79
2021/10/26 11:39:18;;;;;;;14.73;8.55;;;14.50;83.40;;;;;;5088799;28;20013;-80
2021/10/26 11:41:45;;;;;;;14.82;8.52;;;14.60;83.40;;;;;;5073122;28;20024;-79
2021/10/26 11:44:14;;;;;;;14.15;8.52;;;14.60;83.30;;;;;;5088445;28;20036;-79
2021/10/26 11:46:41;;;;;;;13.00;8.45;;;14.70;83.30;;;;;;5088829;28;20104;-79
2021/10/26 11:49:12;;;;;;;13.77;8.20;;;14.80;83.20;;;;;;5106009;28;20032;-78
2021/10/26 11:51:43;;;;;;;16.35;9.32;;;14.80;83.10;;;;;;5088439;28;20051;-80
2021/10/26 11:54:23;;;;;;;15.90;9.35;;;14.90;82.90;;;;;;5088621;28;20471;-80
2021/10/26 11:56:51;;;;;;;11.63;8.63;;;14.90;82.90;;;;;;5088662;28;20025;-79
2021/10/26 12:02:39;;;;;;;10.65;7.68;;;15.10;82.80;;;;;;5073089;28;20046;-79
2021/10/26 12:05:05;;;;;;;13.65;7.55;;;15.10;82.70;;;;;;5088544;28;20024;-79
2021/10/26 12:07:31;;;;;;;13.70;8.13;;;15.10;82.60;;;;;;5088494;28;20052;-79
2021/10/26 12:10:05;;;;;;;11.90;7.40;;;15.10;82.50;;;;;;5088412;28;20507;-79
2021/10/26 12:12:32;;;;;;;14.60;7.38;;;15.10;82.50;;;;;;5088458;28;20024;-79
2021/10/26 12:15:07;;;;;;;12.13;7.80;;;15.10;82.40;;;;;;5088293;28;20028;-78
2021/10/26 12:17:41;;;;;;;10.77;7.35;;;15.20;82.40;;;;;;5088396;28;20103;-79
2021/10/26 12:20:11;;;;;;;;;;;15.20;82.10;;;;;;5088667;28;20016;-79
2021/10/26 12:22:45;;;;;;;11.65;7.05;;;15.20;81.90;;;;;;5088348;28;19910;-79
2021/10/26 12:25:30;;;;;;;11.68;6.47;;;15.30;81.90;;;;;;5072789;28;20017;-79
2021/10/26 12:28:03;;;;;;;13.98;6.68;;;15.20;81.80;;;;;;5073030;28;20029;-79
2021/10/26 12:30:39;;;;;;;8.43;5.93;;;15.20;81.80;;;;;;5105178;28;20027;-79
2021/10/26 12:33:20;;;;;;;10.70;6.45;;;15.30;81.90;;;;;;5088247;28;20482;-78
2021/10/26 12:35:49;;;;;;;11.23;6.22;;;15.30;81.70;;;;;;5088002;28;20036;-79
2021/10/26 12:38:35;;;;;;;9.10;5.95;;;15.40;81.40;;;;;;5088204;28;20020;-80
2021/10/26 12:41:15;;;;;;;8.20;5.00;;;15.40;81.20;;;;;;5105160;28;20028;-79
2021/10/26 12:43:47;;;;;;;12.45;5.20;;;15.50;81.00;;;;;;5090946;28;20396;-79
2021/10/26 12:46:23;;;;;;;11.40;5.20;;;15.40;80.90;;;;;;5088073;28;20039;-80
2021/10/26 12:48:53;;;;;;;10.23;5.15;;;15.50;80.90;;;;;;5087896;28;20017;-79
2021/10/26 12:51:27;;;;;;;8.68;5.03;;;15.50;80.90;;;;;;5088113;28;20028;-79
2021/10/26 12:53:53;;;;;;;8.45;4.75;;;15.60;80.80;;;;;;5088027;28;20174;-79
2021/10/26 12:56:30;;;;;;;9.02;4.78;;;15.60;80.70;;;;;;5088021;28;20099;-79
2021/10/26 12:58:57;;;;;;;9.23;4.22;;;15.50;80.60;;;;;;5087894;28;20012;-79
2021/10/26 13:01:32;;;;;;;8.38;4.00;;;15.50;80.50;;;;;;5087881;28;20021;-79
2021/10/26 13:04:05;;;;;;;7.20;4.25;;;15.50;80.50;;;;;;5072072;28;20047;-79
2021/10/26 13:06:47;;;;;;;9.63;4.50;;;15.50;80.50;;;;;;5108765;28;20034;-79
2021/10/26 13:09:42;;;;;;;12.60;4.60;;;15.50;80.30;;;;;;5091705;28;20020;-79
2021/10/26 13:12:11;;;;;;;8.40;4.55;;;15.50;80.30;;;;;;5091531;28;20028;-79
2021/10/26 13:14:50;;;;;;;9.65;4.88;;;15.50;80.20;;;;;;5108371;28;20134;-79
2021/10/26 13:17:32;;;;;;;9.50;4.55;;;15.60;80.20;;;;;;5091429;28;20020;-80
2021/10/26 13:20:21;;;;;;;10.25;4.57;;;15.60;80.10;;;;;;5108458;28;20025;-79
2021/10/26 13:23:19;;;;;;;6.13;3.88;;;15.60;80.00;;;;;;5091392;28;20099;-80
2021/10/26 13:25:49;;;;;;;8.88;4.57;;;15.70;79.90;;;;;;5041307;28;20078;-79
2021/10/26 13:28:17;;;;;;;8.20;4.18;;;15.70;79.80;;;;;;5091264;28;20538;-79